sensor_id;sensor_type;location;lat;lon;timestamp;temperature;humidity
45207;DHT22;30950;53.086;21.576;2024-01-15T00:01:30;1.20;99.90
45207;DHT22;30950;53.086;21.576;2024-01-15T00:03:59;1.30;99.90
45207;DHT22;30950;53.086;21.576;2024-01-15T00:06:27;1.70;99.90
45207;DHT22;30950;53.086;21.576;2024-01-15T00:08:56;1.40;99.90
45207;DHT22;30950;53.086;21.576;2024-01-15T00:11:25;1.40;99.90
45207;DHT22;30950;53.086;21.576;2024-01-15T00:13:53;1.50;99.90
45207;DHT22;30950;53.086;21.576;2024-01-15T00:16:20;1.40;99.90
45207;DHT22;30950;53.086;21.576;2024-01-15T00:18:48;1.50;99.90
45207;DHT22;30950;53.086;21.576;2024-01-15T00:21:15;1.40;99.90
45207;DHT22;30950;53.086;21.576;2024-01-15T00:23:43;1.40;99.90
45207;DHT22;30950;53.086;21.576;2024-01-15T00:26:13;1.70;99.90
45207;DHT22;30950;53.086;21.576;2024-01-15T00:28:41;1.40;99.90
45207;DHT22;30950;53.086;21.576;2024-01-15T00:31:10;1.40;99.90
45207;DHT22;30950;53.086;21.576;2024-01-15T00:33:38;1.50;99.90
45207;DHT22;30950;53.086;21.576;2024-01-15T00:36:05;1.40;99.90
45207;DHT22;30950;53.086;21.576;2024-01-15T00:38:33;1.40;99.90
45207;DHT22;30950;53.086;21.576;2024-01-15T00:41:01;1.50;99.90
45207;DHT22;30950;53.086;21.576;2024-01-15T00:43:29;1.70;99.90
45207;DHT22;30950;53.086;21.576;2024-01-15T00:45:56;1.60;99.90
45207;DHT22;30950;53.086;21.576;2024-01-15T00:48:24;1.50;99.90
45207;DHT22;30950;53.086;21.576;2024-01-15T00:50:51;1.40;99.90
45207;DHT22;30950;53.086;21.576;2024-01-15T00:53:18;1.40;99.90
45207;DHT22;30950;53.086;21.576;2024-01-15T00:55:46;1.40;99.90
45207;DHT22;30950;53.086;21.576;2024-01-15T00:58:14;1.40;99.90
45207;DHT22;30950;53.086;21.576;2024-01-15T01:00:42;1.40;99.90
45207;DHT22;30950;53.086;21.576;2024-01-15T01:03:10;1.40;99.90
45207;DHT22;30950;53.086;21.576;2024-01-15T01:05:38;1.50;99.90
45207;DHT22;30950;53.086;21.576;2024-01-15T01:08:05;1.50;99.90
45207;DHT22;30950;53.086;21.576;2024-01-15T01:10:33;1.50;99.90
45207;DHT22;30950;53.086;21.576;2024-01-15T01:13:00;1.50;99.90
45207;DHT22;30950;53.086;21.576;2024-01-15T01:15:28;1.50;99.90
45207;DHT22;30950;53.086;21.576;2024-01-15T01:17:55;1.50;99.90
45207;DHT22;30950;53.086;21.576;2024-01-15T01:20:23;1.50;99.90
45207;DHT22;30950;53.086;21.576;2024-01-15T01:22:50;1.50;99.90
45207;DHT22;30950;53.086;21.576;2024-01-15T01:25:18;1.50;99.90
45207;DHT22;30950;53.086;21.576;2024-01-15T01:27:45;1.70;99.90
45207;DHT22;30950;53.086;21.576;2024-01-15T01:30:13;1.50;99.90
45207;DHT22;30950;53.086;21.576;2024-01-15T01:32:40;1.50;99.90
45207;DHT22;30950;53.086;21.576;2024-01-15T01:35:08;1.60;99.90
45207;DHT22;30950;53.086;21.576;2024-01-15T01:37:36;1.50;99.90
45207;DHT22;30950;53.086;21.576;2024-01-15T01:40:04;1.90;99.90
45207;DHT22;30950;53.086;21.576;2024-01-15T01:42:31;1.50;99.90
45207;DHT22;30950;53.086;21.576;2024-01-15T01:44:58;1.90;99.90
45207;DHT22;30950;53.086;21.576;2024-01-15T01:47:26;1.50;99.90
45207;DHT22;30950;53.086;21.576;2024-01-15T01:49:54;1.50;99.90
45207;DHT22;30950;53.086;21.576;2024-01-15T01:52:22;1.50;99.90
45207;DHT22;30950;53.086;21.576;2024-01-15T01:54:49;1.80;99.90
45207;DHT22;30950;53.086;21.576;2024-01-15T01:57:18;1.40;99.90
45207;DHT22;30950;53.086;21.576;2024-01-15T01:59:46;1.40;99.90
45207;DHT22;30950;53.086;21.576;2024-01-15T02:02:14;1.30;99.90
45207;DHT22;30950;53.086;21.576;2024-01-15T02:04:42;1.30;99.90
45207;DHT22;30950;53.086;21.576;2024-01-15T02:07:11;1.30;99.90
45207;DHT22;30950;53.086;21.576;2024-01-15T02:09:38;1.30;99.90
45207;DHT22;30950;53.086;21.576;2024-01-15T02:12:06;1.30;99.90
45207;DHT22;30950;53.086;21.576;2024-01-15T02:14:34;1.30;99.90
45207;DHT22;30950;53.086;21.576;2024-01-15T02:17:01;1.90;99.90
45207;DHT22;30950;53.086;21.576;2024-01-15T02:19:28;1.30;99.90
45207;DHT22;30950;53.086;21.576;2024-01-15T02:21:56;1.40;99.90
45207;DHT22;30950;53.086;21.576;2024-01-15T02:24:23;1.60;99.90
45207;DHT22;30950;53.086;21.576;2024-01-15T02:26:51;1.70;99.90
45207;DHT22;30950;53.086;21.576;2024-01-15T02:29:18;1.40;99.90
45207;DHT22;30950;53.086;21.576;2024-01-15T02:31:46;1.40;99.90
45207;DHT22;30950;53.086;21.576;2024-01-15T02:34:14;1.40;99.90
45207;DHT22;30950;53.086;21.576;2024-01-15T02:36:41;1.40;99.90
45207;DHT22;30950;53.086;21.576;2024-01-15T02:39:09;1.40;99.90
45207;DHT22;30950;53.086;21.576;2024-01-15T02:41:36;1.50;99.90
45207;DHT22;30950;53.086;21.576;2024-01-15T02:44:03;1.50;99.90
45207;DHT22;30950;53.086;21.576;2024-01-15T02:46:31;1.40;99.90
45207;DHT22;30950;53.086;21.576;2024-01-15T02:48:58;1.50;99.90
45207;DHT22;30950;53.086;21.576;2024-01-15T02:51:26;1.70;99.90
45207;DHT22;30950;53.086;21.576;2024-01-15T02:53:53;1.60;99.90
45207;DHT22;30950;53.086;21.576;2024-01-15T02:56:21;1.40;99.90
45207;DHT22;30950;53.086;21.576;2024-01-15T02:58:48;1.60;99.90
45207;DHT22;30950;53.086;21.576;2024-01-15T03:01:18;1.40;99.90
45207;DHT22;30950;53.086;21.576;2024-01-15T03:03:46;1.50;99.90
45207;DHT22;30950;53.086;21.576;2024-01-15T03:06:14;1.50;99.90
45207;DHT22;30950;53.086;21.576;2024-01-15T03:08:41;1.40;99.90
45207;DHT22;30950;53.086;21.576;2024-01-15T03:11:08;1.40;99.90
45207;DHT22;30950;53.086;21.576;2024-01-15T03:13:36;1.40;99.90
45207;DHT22;30950;53.086;21.576;2024-01-15T03:16:05;1.40;99.90
45207;DHT22;30950;53.086;21.576;2024-01-15T03:18:33;1.40;99.90
45207;DHT22;30950;53.086;21.576;2024-01-15T03:21:01;1.50;99.90
45207;DHT22;30950;53.086;21.576;2024-01-15T03:23:28;1.50;99.90
45207;DHT22;30950;53.086;21.576;2024-01-15T03:25:56;1.40;99.90
45207;DHT22;30950;53.086;21.576;2024-01-15T03:28:23;1.40;99.90
45207;DHT22;30950;53.086;21.576;2024-01-15T03:30:50;1.40;99.90
45207;DHT22;30950;53.086;21.576;2024-01-15T03:33:18;1.50;99.90
45207;DHT22;30950;53.086;21.576;2024-01-15T03:35:45;1.40;99.90
45207;DHT22;30950;53.086;21.576;2024-01-15T03:38:13;1.40;99.90
45207;DHT22;30950;53.086;21.576;2024-01-15T03:40:40;1.80;99.90
45207;DHT22;30950;53.086;21.576;2024-01-15T03:43:08;1.40;99.90
45207;DHT22;30950;53.086;21.576;2024-01-15T03:45:35;1.40;99.90
45207;DHT22;30950;53.086;21.576;2024-01-15T03:48:03;1.40;99.90
45207;DHT22;30950;53.086;21.576;2024-01-15T03:50:31;1.40;99.90
45207;DHT22;30950;53.086;21.576;2024-01-15T03:52:58;1.30;99.90
45207;DHT22;30950;53.086;21.576;2024-01-15T03:55:26;1.60;99.90
45207;DHT22;30950;53.086;21.576;2024-01-15T03:57:53;1.30;99.90
45207;DHT22;30950;53.086;21.576;2024-01-15T04:00:21;1.20;99.90
45207;DHT22;30950;53.086;21.576;2024-01-15T04:02:48;1.20;99.90
45207;DHT22;30950;53.086;21.576;2024-01-15T04:05:16;1.20;99.90
45207;DHT22;30950;53.086;21.576;2024-01-15T04:07:43;1.10;99.90
45207;DHT22;30950;53.086;21.576;2024-01-15T04:10:10;1.10;99.90
45207;DHT22;30950;53.086;21.576;2024-01-15T04:12:37;1.20;99.90
45207;DHT22;30950;53.086;21.576;2024-01-15T04:15:05;1.10;99.90
45207;DHT22;30950;53.086;21.576;2024-01-15T04:17:33;1.20;99.90
45207;DHT22;30950;53.086;21.576;2024-01-15T04:20:01;1.20;99.90
45207;DHT22;30950;53.086;21.576;2024-01-15T04:22:28;1.20;99.90
45207;DHT22;30950;53.086;21.576;2024-01-15T04:24:56;1.20;99.90
45207;DHT22;30950;53.086;21.576;2024-01-15T04:27:23;1.20;99.90
45207;DHT22;30950;53.086;21.576;2024-01-15T04:29:50;1.30;99.90
45207;DHT22;30950;53.086;21.576;2024-01-15T04:32:18;1.20;99.90
45207;DHT22;30950;53.086;21.576;2024-01-15T04:34:45;1.20;99.90
45207;DHT22;30950;53.086;21.576;2024-01-15T04:37:13;1.30;99.90
45207;DHT22;30950;53.086;21.576;2024-01-15T04:39:41;1.30;99.90
45207;DHT22;30950;53.086;21.576;2024-01-15T04:42:08;1.30;99.90
45207;DHT22;30950;53.086;21.576;2024-01-15T04:44:35;1.30;99.90
45207;DHT22;30950;53.086;21.576;2024-01-15T04:47:03;1.40;99.90
45207;DHT22;30950;53.086;21.576;2024-01-15T04:49:30;1.30;99.90
45207;DHT22;30950;53.086;21.576;2024-01-15T04:51:59;1.30;99.90
45207;DHT22;30950;53.086;21.576;2024-01-15T04:54:26;1.30;99.90
45207;DHT22;30950;53.086;21.576;2024-01-15T04:56:53;1.30;99.90
45207;DHT22;30950;53.086;21.576;2024-01-15T04:59:21;1.50;99.90
45207;DHT22;30950;53.086;21.576;2024-01-15T05:01:48;1.20;99.90
45207;DHT22;30950;53.086;21.576;2024-01-15T05:04:16;1.20;99.90
45207;DHT22;30950;53.086;21.576;2024-01-15T05:06:43;1.20;99.90
45207;DHT22;30950;53.086;21.576;2024-01-15T05:09:11;1.20;99.90
45207;DHT22;30950;53.086;21.576;2024-01-15T05:11:40;1.20;99.90
45207;DHT22;30950;53.086;21.576;2024-01-15T05:14:07;1.70;99.90
45207;DHT22;30950;53.086;21.576;2024-01-15T05:16:35;1.20;99.90
45207;DHT22;30950;53.086;21.576;2024-01-15T05:19:02;1.20;99.90
45207;DHT22;30950;53.086;21.576;2024-01-15T05:21:30;1.20;99.90
45207;DHT22;30950;53.086;21.576;2024-01-15T05:23:57;1.20;99.90
45207;DHT22;30950;53.086;21.576;2024-01-15T05:26:24;1.20;99.90
45207;DHT22;30950;53.086;21.576;2024-01-15T05:28:52;1.20;99.90
45207;DHT22;30950;53.086;21.576;2024-01-15T05:31:19;1.20;99.90
45207;DHT22;30950;53.086;21.576;2024-01-15T05:33:47;1.20;99.90
45207;DHT22;30950;53.086;21.576;2024-01-15T05:36:14;1.20;99.90
45207;DHT22;30950;53.086;21.576;2024-01-15T05:38:42;1.20;99.90
45207;DHT22;30950;53.086;21.576;2024-01-15T05:41:09;1.20;99.90
45207;DHT22;30950;53.086;21.576;2024-01-15T05:43:37;1.20;99.90
45207;DHT22;30950;53.086;21.576;2024-01-15T05:46:04;1.20;99.90
45207;DHT22;30950;53.086;21.576;2024-01-15T05:48:31;1.20;99.90
45207;DHT22;30950;53.086;21.576;2024-01-15T05:50:59;1.20;99.90
45207;DHT22;30950;53.086;21.576;2024-01-15T05:53:27;1.20;99.90
45207;DHT22;30950;53.086;21.576;2024-01-15T05:55:54;1.20;99.90
45207;DHT22;30950;53.086;21.576;2024-01-15T05:58:23;1.10;99.90
45207;DHT22;30950;53.086;21.576;2024-01-15T06:00:50;1.20;99.90
45207;DHT22;30950;53.086;21.576;2024-01-15T06:03:18;1.20;99.90
45207;DHT22;30950;53.086;21.576;2024-01-15T06:05:45;1.90;99.90
45207;DHT22;30950;53.086;21.576;2024-01-15T06:08:13;1.80;99.90
45207;DHT22;30950;53.086;21.576;2024-01-15T06:10:41;1.10;99.90
45207;DHT22;30950;53.086;21.576;2024-01-15T06:13:09;1.10;99.90
45207;DHT22;30950;53.086;21.576;2024-01-15T06:15:36;1.20;99.90
45207;DHT22;30950;53.086;21.576;2024-01-15T06:18:04;1.20;99.90
45207;DHT22;30950;53.086;21.576;2024-01-15T06:20:32;1.20;99.90
45207;DHT22;30950;53.086;21.576;2024-01-15T06:22:59;1.20;99.90
45207;DHT22;30950;53.086;21.576;2024-01-15T06:25:26;1.20;99.90
45207;DHT22;30950;53.086;21.576;2024-01-15T06:27:54;1.20;99.90
45207;DHT22;30950;53.086;21.576;2024-01-15T06:30:21;1.30;99.90
45207;DHT22;30950;53.086;21.576;2024-01-15T06:32:49;1.40;99.90
45207;DHT22;30950;53.086;21.576;2024-01-15T06:35:17;1.30;99.90
45207;DHT22;30950;53.086;21.576;2024-01-15T06:37:49;1.30;99.90
45207;DHT22;30950;53.086;21.576;2024-01-15T06:40:16;1.30;99.90
45207;DHT22;30950;53.086;21.576;2024-01-15T06:42:44;1.80;99.90
45207;DHT22;30950;53.086;21.576;2024-01-15T06:45:11;2.10;99.90
45207;DHT22;30950;53.086;21.576;2024-01-15T06:47:38;1.20;99.90
45207;DHT22;30950;53.086;21.576;2024-01-15T06:50:06;1.30;99.90
45207;DHT22;30950;53.086;21.576;2024-01-15T06:52:34;1.20;99.90
45207;DHT22;30950;53.086;21.576;2024-01-15T06:55:01;1.30;99.90
45207;DHT22;30950;53.086;21.576;2024-01-15T06:57:29;1.30;99.90
45207;DHT22;30950;53.086;21.576;2024-01-15T06:59:57;1.30;99.90
45207;DHT22;30950;53.086;21.576;2024-01-15T07:02:25;1.30;99.90
45207;DHT22;30950;53.086;21.576;2024-01-15T07:04:53;1.30;99.90
45207;DHT22;30950;53.086;21.576;2024-01-15T07:07:20;1.30;99.90
45207;DHT22;30950;53.086;21.576;2024-01-15T07:09:48;1.30;99.90
45207;DHT22;30950;53.086;21.576;2024-01-15T07:12:15;1.20;99.90
45207;DHT22;30950;53.086;21.576;2024-01-15T07:14:43;1.60;99.90
45207;DHT22;30950;53.086;21.576;2024-01-15T07:17:13;1.20;99.90
45207;DHT22;30950;53.086;21.576;2024-01-15T07:19:41;1.20;99.90
45207;DHT22;30950;53.086;21.576;2024-01-15T07:22:08;1.00;99.90
45207;DHT22;30950;53.086;21.576;2024-01-15T07:24:36;1.10;99.90
45207;DHT22;30950;53.086;21.576;2024-01-15T07:27:04;1.20;99.90
45207;DHT22;30950;53.086;21.576;2024-01-15T07:29:32;1.00;99.90
45207;DHT22;30950;53.086;21.576;2024-01-15T07:32:00;1.00;99.90
45207;DHT22;30950;53.086;21.576;2024-01-15T07:34:27;1.00;99.90
45207;DHT22;30950;53.086;21.576;2024-01-15T07:36:56;1.10;99.90
45207;DHT22;30950;53.086;21.576;2024-01-15T07:39:24;1.10;99.90
45207;DHT22;30950;53.086;21.576;2024-01-15T07:41:52;1.10;99.90
45207;DHT22;30950;53.086;21.576;2024-01-15T07:44:19;1.10;99.90
45207;DHT22;30950;53.086;21.576;2024-01-15T07:46:47;1.10;99.90
45207;DHT22;30950;53.086;21.576;2024-01-15T07:49:15;1.30;99.90
45207;DHT22;30950;53.086;21.576;2024-01-15T07:51:43;1.40;99.90
45207;DHT22;30950;53.086;21.576;2024-01-15T07:54:11;1.10;99.90
45207;DHT22;30950;53.086;21.576;2024-01-15T07:56:53;1.10;99.90
45207;DHT22;30950;53.086;21.576;2024-01-15T07:59:21;1.30;99.90
45207;DHT22;30950;53.086;21.576;2024-01-15T08:01:49;1.10;99.90
45207;DHT22;30950;53.086;21.576;2024-01-15T08:04:16;1.10;99.90
45207;DHT22;30950;53.086;21.576;2024-01-15T08:06:44;1.10;99.90
45207;DHT22;30950;53.086;21.576;2024-01-15T08:09:12;1.10;99.90
45207;DHT22;30950;53.086;21.576;2024-01-15T08:11:41;1.10;99.90
45207;DHT22;30950;53.086;21.576;2024-01-15T08:14:10;1.70;99.90
45207;DHT22;30950;53.086;21.576;2024-01-15T08:16:38;1.10;99.90
45207;DHT22;30950;53.086;21.576;2024-01-15T08:19:06;1.20;99.90
45207;DHT22;30950;53.086;21.576;2024-01-15T08:21:33;1.20;99.90
45207;DHT22;30950;53.086;21.576;2024-01-15T08:24:02;1.30;99.90
45207;DHT22;30950;53.086;21.576;2024-01-15T08:26:30;1.30;99.90
45207;DHT22;30950;53.086;21.576;2024-01-15T08:28:57;1.30;99.90
45207;DHT22;30950;53.086;21.576;2024-01-15T08:31:25;1.30;99.90
45207;DHT22;30950;53.086;21.576;2024-01-15T08:33:52;1.30;99.90
45207;DHT22;30950;53.086;21.576;2024-01-15T08:36:20;1.30;99.90
45207;DHT22;30950;53.086;21.576;2024-01-15T08:38:48;1.30;99.90
45207;DHT22;30950;53.086;21.576;2024-01-15T08:41:15;1.20;99.90
45207;DHT22;30950;53.086;21.576;2024-01-15T08:43:43;1.20;99.90
45207;DHT22;30950;53.086;21.576;2024-01-15T08:46:10;1.20;99.90
45207;DHT22;30950;53.086;21.576;2024-01-15T08:48:37;1.20;99.90
45207;DHT22;30950;53.086;21.576;2024-01-15T08:51:05;1.10;99.90
45207;DHT22;30950;53.086;21.576;2024-01-15T08:53:33;1.10;99.90
45207;DHT22;30950;53.086;21.576;2024-01-15T08:56:00;1.00;99.90
45207;DHT22;30950;53.086;21.576;2024-01-15T08:58:28;1.20;99.90
45207;DHT22;30950;53.086;21.576;2024-01-15T09:00:55;1.20;99.90
45207;DHT22;30950;53.086;21.576;2024-01-15T09:03:23;1.20;99.90
45207;DHT22;30950;53.086;21.576;2024-01-15T09:05:50;1.20;99.90
45207;DHT22;30950;53.086;21.576;2024-01-15T09:08:18;1.20;99.90
45207;DHT22;30950;53.086;21.576;2024-01-15T09:10:46;1.30;99.90
45207;DHT22;30950;53.086;21.576;2024-01-15T09:13:13;1.20;99.90
45207;DHT22;30950;53.086;21.576;2024-01-15T09:15:41;1.20;99.90
45207;DHT22;30950;53.086;21.576;2024-01-15T09:18:10;1.30;99.90
45207;DHT22;30950;53.086;21.576;2024-01-15T09:20:37;1.30;99.90
45207;DHT22;30950;53.086;21.576;2024-01-15T09:23:05;1.30;99.90
45207;DHT22;30950;53.086;21.576;2024-01-15T09:25:33;1.40;99.90
45207;DHT22;30950;53.086;21.576;2024-01-15T09:28:00;1.40;99.90
45207;DHT22;30950;53.086;21.576;2024-01-15T09:30:27;1.40;99.90
45207;DHT22;30950;53.086;21.576;2024-01-15T09:32:55;1.40;99.90
45207;DHT22;30950;53.086;21.576;2024-01-15T09:35:22;1.50;99.90
45207;DHT22;30950;53.086;21.576;2024-01-15T09:37:51;1.40;99.90
45207;DHT22;30950;53.086;21.576;2024-01-15T09:40:20;1.40;99.90
45207;DHT22;30950;53.086;21.576;2024-01-15T09:42:48;1.40;99.90
45207;DHT22;30950;53.086;21.576;2024-01-15T09:45:16;1.50;99.90
45207;DHT22;30950;53.086;21.576;2024-01-15T09:47:44;1.40;99.90
45207;DHT22;30950;53.086;21.576;2024-01-15T09:50:13;1.50;99.90
45207;DHT22;30950;53.086;21.576;2024-01-15T09:52:43;1.50;99.90
45207;DHT22;30950;53.086;21.576;2024-01-15T09:55:13;1.50;99.90
45207;DHT22;30950;53.086;21.576;2024-01-15T09:57:41;1.70;99.90
45207;DHT22;30950;53.086;21.576;2024-01-15T10:00:09;1.50;99.90
45207;DHT22;30950;53.086;21.576;2024-01-15T10:02:38;1.50;99.90
45207;DHT22;30950;53.086;21.576;2024-01-15T10:05:07;1.60;99.90
45207;DHT22;30950;53.086;21.576;2024-01-15T10:07:36;1.60;99.90
45207;DHT22;30950;53.086;21.576;2024-01-15T10:10:05;1.60;99.90
45207;DHT22;30950;53.086;21.576;2024-01-15T10:12:33;1.60;99.90
45207;DHT22;30950;53.086;21.576;2024-01-15T10:15:01;1.60;99.90
45207;DHT22;30950;53.086;21.576;2024-01-15T10:17:29;1.70;99.90
45207;DHT22;30950;53.086;21.576;2024-01-15T10:19:58;1.60;99.90
45207;DHT22;30950;53.086;21.576;2024-01-15T10:22:26;1.60;99.90
45207;DHT22;30950;53.086;21.576;2024-01-15T10:24:53;1.60;99.90
45207;DHT22;30950;53.086;21.576;2024-01-15T10:27:21;1.60;99.90
45207;DHT22;30950;53.086;21.576;2024-01-15T10:29:48;1.70;99.90
45207;DHT22;30950;53.086;21.576;2024-01-15T10:32:16;1.60;99.90
45207;DHT22;30950;53.086;21.576;2024-01-15T10:34:43;1.70;99.90
45207;DHT22;30950;53.086;21.576;2024-01-15T10:37:11;1.70;99.90
45207;DHT22;30950;53.086;21.576;2024-01-15T10:39:38;1.70;99.90
45207;DHT22;30950;53.086;21.576;2024-01-15T10:42:06;1.70;99.90
45207;DHT22;30950;53.086;21.576;2024-01-15T10:44:35;1.70;99.90
45207;DHT22;30950;53.086;21.576;2024-01-15T10:47:04;1.60;99.90
45207;DHT22;30950;53.086;21.576;2024-01-15T10:49:31;1.60;99.90
45207;DHT22;30950;53.086;21.576;2024-01-15T10:52:01;1.70;99.90
45207;DHT22;30950;53.086;21.576;2024-01-15T10:54:30;1.70;99.90
45207;DHT22;30950;53.086;21.576;2024-01-15T10:56:58;1.70;99.90
45207;DHT22;30950;53.086;21.576;2024-01-15T10:59:26;1.70;99.90
45207;DHT22;30950;53.086;21.576;2024-01-15T11:01:54;1.80;99.90
45207;DHT22;30950;53.086;21.576;2024-01-15T11:04:23;1.80;99.90
45207;DHT22;30950;53.086;21.576;2024-01-15T11:06:55;1.90;99.90
45207;DHT22;30950;53.086;21.576;2024-01-15T11:09:24;1.90;99.90
45207;DHT22;30950;53.086;21.576;2024-01-15T11:12:09;1.80;99.90
45207;DHT22;30950;53.086;21.576;2024-01-15T11:14:48;1.80;99.90
45207;DHT22;30950;53.086;21.576;2024-01-15T11:17:17;1.90;99.90
45207;DHT22;30950;53.086;21.576;2024-01-15T11:19:47;1.80;99.90
45207;DHT22;30950;53.086;21.576;2024-01-15T11:25:13;1.80;99.90
45207;DHT22;30950;53.086;21.576;2024-01-15T11:27:42;1.80;99.90
45207;DHT22;30950;53.086;21.576;2024-01-15T11:30:11;1.70;99.90
45207;DHT22;30950;53.086;21.576;2024-01-15T11:32:40;1.70;99.90
45207;DHT22;30950;53.086;21.576;2024-01-15T11:35:11;1.70;99.90
45207;DHT22;30950;53.086;21.576;2024-01-15T11:37:59;1.50;99.90
45207;DHT22;30950;53.086;21.576;2024-01-15T11:43:00;1.20;99.90
45207;DHT22;30950;53.086;21.576;2024-01-15T11:45:27;1.10;99.90
45207;DHT22;30950;53.086;21.576;2024-01-15T11:48:13;1.00;99.90
45207;DHT22;30950;53.086;21.576;2024-01-15T11:50:46;1.00;99.90
45207;DHT22;30950;53.086;21.576;2024-01-15T11:53:34;1.00;99.90
45207;DHT22;30950;53.086;21.576;2024-01-15T11:56:08;1.00;99.90
45207;DHT22;30950;53.086;21.576;2024-01-15T11:58:37;1.10;99.90
45207;DHT22;30950;53.086;21.576;2024-01-15T12:01:04;1.20;99.90
45207;DHT22;30950;53.086;21.576;2024-01-15T12:03:32;1.20;99.90
45207;DHT22;30950;53.086;21.576;2024-01-15T12:06:02;1.20;99.90
45207;DHT22;30950;53.086;21.576;2024-01-15T12:08:29;1.20;99.90
45207;DHT22;30950;53.086;21.576;2024-01-15T12:10:56;1.10;99.90
45207;DHT22;30950;53.086;21.576;2024-01-15T12:13:24;1.00;99.90
45207;DHT22;30950;53.086;21.576;2024-01-15T12:15:51;1.00;99.90
45207;DHT22;30950;53.086;21.576;2024-01-15T12:18:19;1.10;99.90
45207;DHT22;30950;53.086;21.576;2024-01-15T12:20:47;1.20;99.90
45207;DHT22;30950;53.086;21.576;2024-01-15T12:23:15;1.10;99.90
45207;DHT22;30950;53.086;21.576;2024-01-15T12:25:44;1.20;99.90
45207;DHT22;30950;53.086;21.576;2024-01-15T12:28:11;1.20;99.90
45207;DHT22;30950;53.086;21.576;2024-01-15T12:30:39;1.30;99.90
45207;DHT22;30950;53.086;21.576;2024-01-15T12:33:07;1.30;99.90
45207;DHT22;30950;53.086;21.576;2024-01-15T12:35:37;1.40;99.90
45207;DHT22;30950;53.086;21.576;2024-01-15T12:38:04;1.50;99.90
45207;DHT22;30950;53.086;21.576;2024-01-15T12:40:33;1.50;99.90
45207;DHT22;30950;53.086;21.576;2024-01-15T12:43:06;1.50;99.90
45207;DHT22;30950;53.086;21.576;2024-01-15T12:45:34;1.90;99.90
45207;DHT22;30950;53.086;21.576;2024-01-15T12:48:06;2.10;99.90
45207;DHT22;30950;53.086;21.576;2024-01-15T12:50:34;1.50;99.90
45207;DHT22;30950;53.086;21.576;2024-01-15T12:53:03;1.50;99.90
45207;DHT22;30950;53.086;21.576;2024-01-15T12:55:30;1.40;99.90
45207;DHT22;30950;53.086;21.576;2024-01-15T12:58:22;1.40;99.90
45207;DHT22;30950;53.086;21.576;2024-01-15T13:00:50;1.40;99.90
45207;DHT22;30950;53.086;21.576;2024-01-15T13:03:17;1.40;99.90
45207;DHT22;30950;53.086;21.576;2024-01-15T13:05:45;1.40;99.90
45207;DHT22;30950;53.086;21.576;2024-01-15T13:08:13;1.40;99.90
45207;DHT22;30950;53.086;21.576;2024-01-15T13:10:40;1.40;99.90
45207;DHT22;30950;53.086;21.576;2024-01-15T13:13:09;1.40;99.90
45207;DHT22;30950;53.086;21.576;2024-01-15T13:15:36;1.40;99.90
45207;DHT22;30950;53.086;21.576;2024-01-15T13:18:04;1.40;99.90
45207;DHT22;30950;53.086;21.576;2024-01-15T13:20:32;1.40;99.90
45207;DHT22;30950;53.086;21.576;2024-01-15T13:23:00;1.40;99.90
45207;DHT22;30950;53.086;21.576;2024-01-15T13:25:27;1.40;99.90
45207;DHT22;30950;53.086;21.576;2024-01-15T13:27:55;1.40;99.90
45207;DHT22;30950;53.086;21.576;2024-01-15T13:30:22;1.40;99.90
45207;DHT22;30950;53.086;21.576;2024-01-15T13:32:49;1.20;99.90
45207;DHT22;30950;53.086;21.576;2024-01-15T13:35:17;1.20;99.90
45207;DHT22;30950;53.086;21.576;2024-01-15T13:37:44;1.90;99.90
45207;DHT22;30950;53.086;21.576;2024-01-15T13:40:11;1.20;99.90
45207;DHT22;30950;53.086;21.576;2024-01-15T13:42:44;1.20;99.90
45207;DHT22;30950;53.086;21.576;2024-01-15T13:45:13;1.20;99.90
45207;DHT22;30950;53.086;21.576;2024-01-15T13:47:43;1.20;99.90
45207;DHT22;30950;53.086;21.576;2024-01-15T13:50:11;1.20;99.90
45207;DHT22;30950;53.086;21.576;2024-01-15T13:52:38;1.10;99.90
45207;DHT22;30950;53.086;21.576;2024-01-15T13:55:06;1.10;99.90
45207;DHT22;30950;53.086;21.576;2024-01-15T13:57:36;1.10;99.90
45207;DHT22;30950;53.086;21.576;2024-01-15T14:00:04;1.20;99.90
45207;DHT22;30950;53.086;21.576;2024-01-15T14:02:37;1.10;99.90
45207;DHT22;30950;53.086;21.576;2024-01-15T14:05:04;1.20;99.90
45207;DHT22;30950;53.086;21.576;2024-01-15T14:07:33;1.20;99.90
45207;DHT22;30950;53.086;21.576;2024-01-15T14:10:00;1.10;99.90
45207;DHT22;30950;53.086;21.576;2024-01-15T14:12:28;1.20;99.90
45207;DHT22;30950;53.086;21.576;2024-01-15T14:14:56;1.10;99.90
45207;DHT22;30950;53.086;21.576;2024-01-15T14:17:24;1.20;99.90
45207;DHT22;30950;53.086;21.576;2024-01-15T14:19:51;1.10;99.90
45207;DHT22;30950;53.086;21.576;2024-01-15T14:22:22;1.10;99.90
45207;DHT22;30950;53.086;21.576;2024-01-15T14:24:49;1.00;99.90
45207;DHT22;30950;53.086;21.576;2024-01-15T14:27:18;1.80;99.90
45207;DHT22;30950;53.086;21.576;2024-01-15T14:29:45;1.00;99.90
45207;DHT22;30950;53.086;21.576;2024-01-15T14:32:13;1.30;99.90
45207;DHT22;30950;53.086;21.576;2024-01-15T14:34:41;1.10;99.90
45207;DHT22;30950;53.086;21.576;2024-01-15T14:37:09;1.20;99.90
45207;DHT22;30950;53.086;21.576;2024-01-15T14:39:36;1.20;99.90
45207;DHT22;30950;53.086;21.576;2024-01-15T14:42:04;1.00;99.90
45207;DHT22;30950;53.086;21.576;2024-01-15T14:44:31;1.00;99.90
45207;DHT22;30950;53.086;21.576;2024-01-15T14:47:00;1.00;99.90
45207;DHT22;30950;53.086;21.576;2024-01-15T14:49:28;1.00;99.90
45207;DHT22;30950;53.086;21.576;2024-01-15T14:51:55;1.00;99.90
45207;DHT22;30950;53.086;21.576;2024-01-15T14:54:23;1.00;99.90
45207;DHT22;30950;53.086;21.576;2024-01-15T14:56:51;1.00;99.90
45207;DHT22;30950;53.086;21.576;2024-01-15T14:59:19;1.10;99.90
45207;DHT22;30950;53.086;21.576;2024-01-15T15:01:46;1.10;99.90
45207;DHT22;30950;53.086;21.576;2024-01-15T15:04:14;1.20;99.90
45207;DHT22;30950;53.086;21.576;2024-01-15T15:06:42;1.20;99.90
45207;DHT22;30950;53.086;21.576;2024-01-15T15:09:09;1.20;99.90
45207;DHT22;30950;53.086;21.576;2024-01-15T15:11:39;1.50;99.90
45207;DHT22;30950;53.086;21.576;2024-01-15T15:14:07;1.20;99.90
45207;DHT22;30950;53.086;21.576;2024-01-15T15:16:34;1.30;99.90
45207;DHT22;30950;53.086;21.576;2024-01-15T15:19:01;1.20;99.90
45207;DHT22;30950;53.086;21.576;2024-01-15T15:21:29;1.30;99.90
45207;DHT22;30950;53.086;21.576;2024-01-15T15:23:57;1.30;99.90
45207;DHT22;30950;53.086;21.576;2024-01-15T15:26:24;1.20;99.90
45207;DHT22;30950;53.086;21.576;2024-01-15T15:28:52;1.20;99.90
45207;DHT22;30950;53.086;21.576;2024-01-15T15:31:19;0.90;99.90
45207;DHT22;30950;53.086;21.576;2024-01-15T15:33:47;0.80;99.90
45207;DHT22;30950;53.086;21.576;2024-01-15T15:36:14;0.60;99.90
45207;DHT22;30950;53.086;21.576;2024-01-15T15:38:41;0.60;99.90
45207;DHT22;30950;53.086;21.576;2024-01-15T15:41:09;0.50;99.90